createdAt,value
2019-02-17T00:00:09.749Z,3.20
2019-02-17T00:03:12.071Z,3.20
2019-02-17T00:06:14.354Z,3.20
2019-02-17T00:09:16.622Z,3.20
2019-02-17T00:12:18.910Z,3.20
2019-02-17T00:15:21.228Z,3.10
2019-02-17T00:18:23.557Z,3.10
2019-02-17T00:21:25.832Z,3.00
2019-02-17T00:24:28.199Z,3.00
2019-02-17T00:27:30.483Z,3.00
2019-02-17T00:30:32.800Z,2.90
2019-02-17T00:33:35.121Z,2.90
2019-02-17T00:36:37.373Z,2.90
2019-02-17T00:39:39.672Z,2.90
2019-02-17T00:42:42.000Z,2.90
2019-02-17T00:45:44.318Z,2.90
2019-02-17T00:48:47.291Z,2.80
2019-02-17T00:51:49.580Z,2.80
2019-02-17T00:54:51.891Z,2.80
2019-02-17T00:57:54.129Z,2.70
2019-02-17T01:00:56.407Z,2.70
2019-02-17T01:03:58.651Z,2.70
2019-02-17T01:07:01.040Z,2.60
2019-02-17T01:10:03.483Z,2.60
2019-02-17T01:13:05.777Z,2.60
2019-02-17T01:16:08.112Z,2.50
2019-02-17T01:19:10.424Z,2.50
2019-02-17T01:22:12.707Z,2.50
2019-02-17T01:25:14.976Z,2.40
2019-02-17T01:28:17.277Z,2.40
2019-02-17T01:31:19.644Z,2.40
2019-02-17T01:34:21.929Z,2.40
2019-02-17T01:37:24.208Z,2.30
2019-02-17T01:40:26.531Z,2.30
2019-02-17T01:43:28.981Z,2.30
2019-02-17T01:46:31.212Z,2.30
2019-02-17T01:49:33.483Z,2.20
2019-02-17T01:52:35.736Z,2.20
2019-02-17T01:57:02.583Z,2.10
2019-02-17T02:00:06.280Z,2.10
2019-02-17T02:03:08.510Z,2.00
2019-02-17T02:06:10.837Z,2.00
2019-02-17T02:09:13.120Z,2.00
2019-02-17T02:12:15.443Z,2.00
2019-02-17T02:15:17.707Z,1.90
2019-02-17T02:18:20.023Z,1.90
2019-02-17T02:21:22.331Z,1.80
2019-02-17T02:24:24.631Z,1.80
2019-02-17T02:27:26.919Z,1.80
2019-02-17T02:30:29.160Z,1.70
2019-02-17T02:33:31.424Z,1.70
2019-02-17T02:36:33.711Z,1.70
2019-02-17T02:39:35.991Z,1.70
2019-02-17T02:42:38.255Z,1.70
2019-02-17T02:45:40.561Z,1.60
2019-02-17T02:48:42.836Z,1.60
2019-02-17T02:51:45.100Z,1.60
2019-02-17T02:54:47.352Z,1.60
2019-02-17T02:57:49.717Z,1.60
2019-02-17T03:00:51.983Z,1.60
2019-02-17T03:03:54.296Z,1.50
2019-02-17T03:06:58.947Z,1.50
2019-02-17T03:10:01.296Z,1.50
2019-02-17T03:13:03.583Z,1.50
2019-02-17T03:16:05.846Z,1.40
2019-02-17T03:19:08.197Z,1.40
2019-02-17T03:22:10.454Z,1.30
2019-02-17T03:25:12.743Z,1.30
2019-02-17T03:28:15.060Z,1.30
2019-02-17T03:31:17.548Z,1.30
2019-02-17T03:34:19.717Z,1.30
2019-02-17T03:37:22.042Z,1.20
2019-02-17T03:40:24.343Z,1.20
2019-02-17T03:43:26.936Z,1.20
2019-02-17T03:46:29.216Z,1.20
2019-02-17T03:49:31.496Z,1.20
2019-02-17T03:52:33.852Z,1.20
2019-02-17T03:55:36.152Z,1.20
2019-02-17T03:58:38.502Z,1.20
2019-02-17T04:01:40.779Z,1.10
2019-02-17T04:04:43.046Z,1.10
2019-02-17T04:07:45.339Z,1.10
2019-02-17T04:10:47.680Z,1.10
2019-02-17T04:13:50.094Z,1.10
2019-02-17T04:16:52.459Z,1.10
2019-02-17T04:19:54.822Z,1.00
2019-02-17T04:22:57.125Z,1.00
2019-02-17T04:25:59.598Z,1.00
2019-02-17T04:29:01.964Z,1.00
2019-02-17T04:32:04.343Z,1.00
2019-02-17T04:35:06.704Z,1.00
2019-02-17T04:38:09.059Z,1.00
2019-02-17T04:41:11.387Z,0.90
2019-02-17T04:44:13.696Z,0.90
2019-02-17T04:47:15.995Z,0.90
2019-02-17T04:50:18.289Z,0.90
2019-02-17T04:53:20.636Z,0.90
2019-02-17T04:56:22.955Z,0.90
2019-02-17T04:59:25.302Z,0.90
2019-02-17T05:02:27.646Z,0.90
2019-02-17T05:05:29.978Z,0.90
2019-02-17T05:08:32.307Z,0.90
2019-02-17T05:11:34.605Z,0.80
2019-02-17T05:14:36.938Z,0.80
2019-02-17T05:17:39.235Z,0.80
2019-02-17T05:20:41.515Z,0.70
2019-02-17T05:23:43.859Z,0.70
2019-02-17T05:26:46.149Z,0.70
2019-02-17T05:29:48.427Z,0.60
2019-02-17T05:32:50.758Z,0.60
2019-02-17T05:35:53.020Z,0.60
2019-02-17T05:38:55.340Z,0.60
2019-02-17T05:41:57.684Z,0.60
2019-02-17T05:45:00.032Z,0.60
2019-02-17T05:48:02.328Z,0.50
2019-02-17T05:51:04.635Z,0.50
2019-02-17T05:54:06.975Z,0.50
2019-02-17T05:57:09.663Z,0.50
2019-02-17T06:00:12.081Z,0.50
2019-02-17T06:03:14.373Z,0.50
2019-02-17T06:06:16.663Z,0.50
2019-02-17T06:09:18.921Z,0.50
2019-02-17T06:12:21.215Z,0.50
2019-02-17T06:15:23.509Z,0.50
2019-02-17T06:18:25.806Z,0.50
2019-02-17T06:21:28.043Z,0.50
2019-02-17T06:24:30.344Z,0.40
2019-02-17T06:27:32.622Z,0.40
2019-02-17T06:30:34.891Z,0.40
2019-02-17T06:33:37.189Z,0.50
2019-02-17T06:36:40.975Z,0.50
2019-02-17T06:39:41.778Z,0.50
2019-02-17T06:42:44.215Z,0.50
2019-02-17T06:45:46.556Z,0.50
2019-02-17T06:48:48.822Z,0.50
2019-02-17T06:51:51.085Z,0.40
2019-02-17T06:55:06.480Z,0.40
2019-02-17T06:58:08.787Z,0.40
2019-02-17T07:01:11.163Z,0.40
2019-02-17T07:04:13.506Z,0.40
2019-02-17T07:07:15.781Z,0.40
2019-02-17T07:10:18.050Z,0.40
2019-02-17T07:13:20.411Z,0.40
2019-02-17T07:16:22.828Z,0.40
2019-02-17T07:19:25.091Z,0.40
2019-02-17T07:22:27.415Z,0.40
2019-02-17T07:25:30.582Z,0.50
2019-02-17T07:28:31.970Z,0.60
2019-02-17T07:31:35.228Z,0.70
2019-02-17T07:34:36.647Z,0.80
2019-02-17T07:37:38.868Z,0.90
2019-02-17T07:40:41.217Z,1.00
2019-02-17T07:43:44.200Z,1.10
2019-02-17T07:46:46.515Z,1.30
2019-02-17T07:49:48.795Z,1.40
2019-02-17T07:52:51.099Z,1.50
2019-02-17T07:55:53.371Z,1.70
2019-02-17T07:58:55.731Z,1.80
2019-02-17T08:01:58.106Z,1.90
2019-02-17T08:05:00.784Z,2.00
2019-02-17T08:08:03.196Z,2.10
2019-02-17T08:11:05.523Z,2.30
2019-02-17T08:14:07.841Z,2.50
2019-02-17T08:17:10.873Z,2.70
2019-02-17T08:20:13.174Z,2.90
2019-02-17T08:23:15.477Z,3.10
2019-02-17T08:26:18.276Z,3.30
2019-02-17T08:29:20.655Z,3.50
2019-02-17T08:32:23.067Z,3.70
2019-02-17T08:35:25.574Z,3.80
2019-02-17T08:38:28.791Z,3.90
2019-02-17T08:41:31.192Z,4.00
2019-02-17T08:44:34.440Z,4.00
2019-02-17T08:47:37.580Z,4.10
2019-02-17T08:50:39.882Z,4.10
2019-02-17T08:53:42.192Z,4.10
2019-02-17T08:56:44.462Z,4.20
2019-02-17T08:59:47.090Z,4.30
2019-02-17T09:02:49.174Z,4.40
2019-02-17T09:05:51.471Z,4.50
2019-02-17T09:08:53.783Z,4.60
2019-02-17T09:11:56.129Z,4.70
2019-02-17T09:14:58.442Z,4.90
2019-02-17T09:18:00.781Z,5.00
2019-02-17T09:21:03.164Z,5.10
2019-02-17T09:24:05.563Z,5.40
2019-02-17T09:27:07.870Z,5.60
2019-02-17T09:30:12.654Z,5.80
2019-02-17T09:33:15.070Z,5.90
2019-02-17T09:36:17.391Z,6.00
2019-02-17T09:39:19.766Z,6.20
2019-02-17T09:42:22.114Z,6.30
2019-02-17T09:45:24.410Z,6.40
2019-02-17T09:48:26.949Z,6.50
2019-02-17T09:51:29.344Z,6.70
2019-02-17T09:54:31.641Z,6.80
2019-02-17T09:57:34.530Z,7.00
2019-02-17T10:00:37.039Z,7.10
2019-02-17T10:03:39.322Z,7.20
2019-02-17T10:06:41.639Z,7.30
2019-02-17T10:09:44.052Z,7.30
2019-02-17T10:12:46.340Z,7.40
2019-02-17T10:15:48.760Z,7.50
2019-02-17T10:18:51.116Z,7.70
2019-02-17T10:21:53.368Z,7.90
2019-02-17T10:24:55.646Z,8.10
2019-02-17T10:27:57.913Z,8.40
2019-02-17T10:31:00.153Z,8.50
2019-02-17T10:34:02.531Z,8.60
2019-02-17T10:37:06.131Z,8.60
2019-02-17T10:40:09.923Z,8.70
2019-02-17T10:43:12.246Z,8.70
2019-02-17T10:46:14.514Z,8.80
2019-02-17T10:49:16.858Z,8.80
2019-02-17T10:52:19.170Z,8.90
2019-02-17T10:55:21.642Z,9.20
2019-02-17T10:58:23.907Z,9.50
2019-02-17T11:01:26.175Z,9.90
2019-02-17T11:04:28.501Z,10.10
2019-02-17T11:07:30.877Z,10.30
2019-02-17T11:10:33.155Z,10.40
2019-02-17T11:13:35.411Z,10.40
2019-02-17T11:16:37.727Z,10.30
2019-02-17T11:19:40.156Z,10.30
2019-02-17T11:22:42.445Z,10.30
2019-02-17T11:25:44.790Z,10.40
2019-02-17T11:28:47.085Z,10.40
2019-02-17T11:31:49.438Z,10.40
2019-02-17T11:34:51.751Z,10.50
2019-02-17T11:37:54.224Z,10.40
2019-02-17T11:40:56.686Z,10.50
2019-02-17T11:43:59.145Z,10.60
2019-02-17T11:47:02.367Z,10.60
2019-02-17T11:50:04.871Z,10.60
2019-02-17T11:53:07.158Z,10.60
2019-02-17T11:56:09.567Z,10.70
2019-02-17T11:59:11.872Z,10.70
2019-02-17T12:02:24.443Z,10.70
2019-02-17T12:05:16.623Z,10.80
2019-02-17T12:08:18.929Z,10.80
2019-02-17T12:11:21.186Z,10.80
2019-02-17T12:14:30.576Z,10.80
2019-02-17T12:17:32.884Z,10.90
2019-02-17T12:20:45.738Z,10.90
2019-02-17T12:23:52.668Z,10.90
2019-02-17T12:27:14.448Z,11.00
2019-02-17T12:30:21.167Z,10.90
2019-02-17T12:33:23.688Z,11.00
2019-02-17T12:36:26.122Z,11.00
2019-02-17T12:39:28.442Z,10.90
2019-02-17T12:42:30.746Z,11.00
2019-02-17T12:45:33.058Z,11.00
2019-02-17T12:48:35.402Z,11.10
2019-02-17T12:51:37.732Z,11.10
2019-02-17T12:54:39.989Z,11.20
2019-02-17T12:57:42.402Z,11.30
2019-02-17T13:00:44.808Z,11.30
2019-02-17T13:03:47.168Z,11.30
2019-02-17T13:06:49.434Z,11.30
2019-02-17T13:09:51.707Z,11.30
2019-02-17T13:12:54.153Z,11.30
2019-02-17T13:15:56.422Z,11.30
2019-02-17T13:18:58.815Z,11.40
2019-02-17T13:22:01.194Z,11.30
2019-02-17T13:25:03.588Z,11.40
2019-02-17T13:28:05.971Z,11.40
2019-02-17T13:31:08.315Z,11.40
2019-02-17T13:34:10.597Z,11.40
2019-02-17T13:37:13.065Z,11.40
2019-02-17T13:40:15.426Z,11.30
2019-02-17T13:43:17.752Z,11.30
2019-02-17T13:46:20.050Z,11.30
2019-02-17T13:49:22.407Z,11.30
2019-02-17T13:52:24.713Z,11.30
2019-02-17T13:55:27.083Z,11.30
2019-02-17T13:58:29.379Z,11.20
2019-02-17T14:01:31.685Z,11.20
2019-02-17T14:04:34.377Z,11.20
2019-02-17T14:07:36.699Z,11.20
2019-02-17T14:10:39.284Z,11.20
2019-02-17T14:13:41.758Z,11.30
2019-02-17T14:16:44.182Z,11.30
2019-02-17T14:19:46.609Z,11.30
2019-02-17T14:22:48.936Z,11.30
2019-02-17T14:25:51.291Z,11.30
2019-02-17T14:28:54.015Z,11.30
2019-02-17T14:31:56.470Z,11.30
2019-02-17T14:34:59.694Z,11.30
2019-02-17T14:38:02.075Z,11.40
2019-02-17T14:41:04.430Z,11.40
2019-02-17T14:44:06.810Z,11.50
2019-02-17T14:47:09.141Z,11.50
2019-02-17T14:50:11.550Z,11.60
2019-02-17T14:53:16.026Z,11.60
2019-02-17T14:56:16.224Z,11.50
2019-02-17T14:59:18.583Z,11.40
2019-02-17T15:02:20.962Z,11.40
2019-02-17T15:05:23.231Z,11.40
2019-02-17T15:08:25.546Z,11.40
2019-02-17T15:11:27.836Z,11.40
2019-02-17T15:14:30.242Z,11.40
2019-02-17T15:17:32.536Z,11.50
2019-02-17T15:20:34.810Z,11.60
2019-02-17T15:23:37.075Z,11.60
2019-02-17T15:26:39.367Z,11.70
2019-02-17T15:29:41.693Z,11.70
2019-02-17T15:32:43.984Z,11.90
2019-02-17T15:35:46.473Z,12.00
2019-02-17T15:39:04.719Z,12.10
2019-02-17T15:42:07.143Z,12.20
2019-02-17T15:45:09.465Z,12.30
2019-02-17T15:48:11.808Z,12.40
2019-02-17T15:51:14.117Z,12.40
2019-02-17T15:54:16.461Z,12.40
2019-02-17T15:57:19.111Z,12.40
2019-02-17T16:00:21.450Z,12.40
2019-02-17T16:03:23.911Z,12.50
2019-02-17T16:06:26.465Z,12.40
2019-02-17T16:09:29.557Z,12.40
2019-02-17T16:12:32.875Z,12.30
2019-02-17T16:15:36.194Z,12.20
2019-02-17T16:18:39.404Z,12.20
2019-02-17T16:21:42.615Z,12.10
2019-02-17T16:24:45.876Z,12.10
2019-02-17T16:27:49.062Z,12.00
2019-02-17T16:30:52.316Z,12.00
2019-02-17T16:33:55.542Z,11.90
2019-02-17T16:36:58.789Z,11.80
2019-02-17T16:40:01.911Z,11.70
2019-02-17T16:43:05.103Z,11.70
2019-02-17T16:46:08.247Z,11.60
2019-02-17T16:49:11.511Z,11.60
2019-02-17T16:52:15.344Z,11.50
2019-02-17T16:55:18.573Z,11.50
2019-02-17T16:58:22.361Z,11.40
2019-02-17T17:01:25.461Z,11.30
2019-02-17T17:04:29.264Z,11.20
2019-02-17T17:07:32.468Z,11.10
2019-02-17T17:10:35.722Z,11.00
2019-02-17T17:13:38.878Z,10.90
2019-02-17T17:16:42.050Z,10.80
2019-02-17T17:19:45.254Z,10.70
2019-02-17T17:22:48.096Z,10.60
2019-02-17T17:25:50.082Z,10.50
2019-02-17T17:28:52.387Z,10.40
2019-02-17T17:31:55.611Z,10.30
2019-02-17T17:34:59.178Z,10.10
2019-02-17T17:38:00.239Z,10.00
2019-02-17T17:41:02.610Z,10.00
2019-02-17T17:44:04.887Z,9.90
2019-02-17T17:47:07.216Z,9.80
2019-02-17T17:50:10.852Z,9.80
2019-02-17T17:53:13.243Z,9.70
2019-02-17T17:56:15.527Z,9.70
2019-02-17T17:59:17.856Z,9.60
2019-02-17T18:02:20.159Z,9.50
2019-02-17T18:08:28.851Z,9.40
2019-02-17T18:11:31.180Z,9.30
2019-02-17T18:14:33.451Z,9.30
2019-02-17T18:17:35.764Z,9.20
2019-02-17T18:20:38.095Z,9.10
2019-02-17T18:23:40.369Z,9.00
2019-02-17T18:26:42.648Z,8.90
2019-02-17T18:29:45.055Z,8.90
2019-02-17T18:32:47.350Z,8.80
2019-02-17T18:35:49.668Z,8.80
2019-02-17T18:38:51.907Z,8.70
2019-02-17T18:41:54.217Z,8.70
2019-02-17T18:44:56.579Z,8.60
2019-02-17T18:47:58.872Z,8.50
2019-02-17T18:51:01.303Z,8.50
2019-02-17T18:54:03.675Z,8.40
2019-02-17T18:57:08.190Z,8.40
2019-02-17T19:00:10.247Z,8.30
2019-02-17T19:03:12.742Z,8.30
2019-02-17T19:06:15.173Z,8.20
2019-02-17T19:09:17.463Z,8.10
2019-02-17T19:12:19.905Z,8.10
2019-02-17T19:15:22.279Z,8.00
2019-02-17T19:18:24.652Z,7.90
2019-02-17T19:21:27.459Z,7.90
2019-02-17T19:24:29.296Z,7.80
2019-02-17T19:27:31.592Z,7.80
2019-02-17T19:30:33.875Z,7.70
2019-02-17T19:33:36.151Z,7.70
2019-02-17T19:36:38.491Z,7.60
2019-02-17T19:39:40.779Z,7.60
2019-02-17T19:42:43.064Z,7.50
2019-02-17T19:45:45.369Z,7.50
2019-02-17T19:48:47.995Z,7.40
2019-02-17T19:51:50.065Z,7.30
2019-02-17T19:54:52.370Z,7.30
2019-02-17T19:57:54.726Z,7.30
2019-02-17T20:00:57.042Z,7.30
2019-02-17T20:04:04.851Z,7.20
2019-02-17T20:07:07.136Z,7.10
2019-02-17T20:10:09.490Z,7.10
2019-02-17T20:13:11.813Z,7.00
2019-02-17T20:16:14.143Z,7.00
2019-02-17T20:19:16.441Z,6.90
2019-02-17T20:22:18.726Z,6.80
2019-02-17T20:25:21.044Z,6.80
2019-02-17T20:28:32.643Z,6.70
2019-02-17T20:31:25.600Z,6.70
2019-02-17T20:34:27.929Z,6.60
2019-02-17T20:37:30.279Z,6.60
2019-02-17T20:40:32.700Z,6.50
2019-02-17T20:43:35.016Z,6.50
2019-02-17T20:46:37.308Z,6.40
2019-02-17T20:49:39.636Z,6.40
2019-02-17T20:52:41.955Z,6.30
2019-02-17T20:55:44.227Z,6.30
2019-02-17T20:58:46.585Z,6.20
2019-02-17T21:01:48.858Z,6.20
2019-02-17T21:04:51.740Z,6.10
2019-02-17T21:07:54.086Z,6.00
2019-02-17T21:10:56.375Z,6.00
2019-02-17T21:13:58.875Z,5.90
2019-02-17T21:17:01.147Z,5.80
2019-02-17T21:20:03.645Z,5.80
2019-02-17T21:23:05.927Z,5.70
2019-02-17T21:26:08.207Z,5.60
2019-02-17T21:29:10.957Z,5.60
2019-02-17T21:32:13.224Z,5.50
2019-02-17T21:35:15.587Z,5.50
2019-02-17T21:38:17.887Z,5.40
2019-02-17T21:41:20.201Z,5.40
2019-02-17T21:44:22.515Z,5.30
2019-02-17T21:47:24.788Z,5.30
2019-02-17T21:50:27.111Z,5.20
2019-02-17T21:53:29.498Z,5.20
2019-02-17T21:56:31.846Z,5.10
2019-02-17T21:59:34.205Z,5.10
2019-02-17T22:02:36.515Z,5.00
2019-02-17T22:05:38.863Z,5.00
2019-02-17T22:08:41.580Z,4.90
2019-02-17T22:11:43.863Z,4.90
2019-02-17T22:14:46.117Z,4.90
2019-02-17T22:17:49.282Z,4.80
2019-02-17T22:20:51.557Z,4.80
2019-02-17T22:23:53.827Z,4.70
2019-02-17T22:26:57.226Z,4.70
2019-02-17T22:29:59.616Z,4.60
2019-02-17T22:33:01.992Z,4.60
2019-02-17T22:36:04.298Z,4.50
2019-02-17T22:39:06.591Z,4.50
2019-02-17T22:42:08.907Z,4.40
2019-02-17T22:45:11.226Z,4.30
2019-02-17T22:48:14.675Z,4.30
2019-02-17T22:51:16.996Z,4.20
2019-02-17T22:54:19.335Z,4.20
2019-02-17T22:57:22.958Z,4.20
2019-02-17T23:00:32.963Z,4.10
2019-02-17T23:03:35.818Z,4.10
2019-02-17T23:06:38.076Z,4.00
2019-02-17T23:09:40.577Z,4.00
2019-02-17T23:12:43.001Z,3.90
2019-02-17T23:15:45.382Z,3.90
2019-02-17T23:18:48.671Z,3.90
2019-02-17T23:21:50.983Z,3.90
2019-02-17T23:24:53.354Z,3.80
2019-02-17T23:27:55.577Z,3.80
2019-02-17T23:30:57.858Z,3.70
2019-02-17T23:34:00.157Z,3.70
2019-02-17T23:37:04.288Z,3.70
2019-02-17T23:40:06.412Z,3.60
2019-02-17T23:43:08.749Z,3.60
2019-02-17T23:46:14.127Z,3.60
2019-02-17T23:49:17.123Z,3.50
2019-02-17T23:52:19.380Z,3.50
2019-02-17T23:55:21.739Z,3.50
2019-02-17T23:58:24.057Z,3.50
